createdAt,value
2023-05-19T00:00:24.797Z,64.93
2023-05-19T00:03:12.623Z,64.70
2023-05-19T00:05:45.033Z,65.04
2023-05-19T00:08:11.852Z,65.21
2023-05-19T00:10:40.202Z,65.55
2023-05-19T00:13:06.879Z,65.21
2023-05-19T00:15:34.934Z,65.11
2023-05-19T00:18:02.122Z,64.32
2023-05-19T00:20:28.796Z,64.94
2023-05-19T00:22:55.639Z,65.31
2023-05-19T00:25:22.483Z,65.22
2023-05-19T00:27:49.181Z,65.22
2023-05-19T00:30:16.066Z,65.37
2023-05-19T00:32:44.348Z,64.95
2023-05-19T00:35:12.139Z,64.39
2023-05-19T00:37:38.973Z,64.55
2023-05-19T00:40:07.145Z,64.40
2023-05-19T00:42:33.785Z,63.97
2023-05-19T00:45:00.462Z,63.58
2023-05-19T00:47:27.600Z,63.21
2023-05-19T00:49:54.208Z,63.21
2023-05-19T00:52:20.914Z,63.32
2023-05-19T00:54:47.754Z,62.82
2023-05-19T00:57:14.629Z,62.45
2023-05-19T00:59:41.335Z,62.31
2023-05-19T01:02:08.083Z,62.49
2023-05-19T01:04:35.570Z,62.51
2023-05-19T01:07:04.125Z,62.35
2023-05-19T01:09:31.570Z,62.47
2023-05-19T01:12:01.554Z,63.03
2023-05-19T01:14:28.531Z,63.16
2023-05-19T01:17:27.916Z,63.02
2023-05-19T01:20:10.606Z,63.07
2023-05-19T01:22:47.633Z,63.30
2023-05-19T01:25:29.219Z,63.65
2023-05-19T01:28:42.456Z,63.79
2023-05-19T01:31:09.430Z,63.87
2023-05-19T01:33:39.826Z,63.90
2023-05-19T01:36:07.377Z,63.90
2023-05-19T01:38:34.524Z,63.66
2023-05-19T01:41:03.724Z,63.52
2023-05-19T01:43:30.313Z,63.45
2023-05-19T01:45:58.263Z,63.19
2023-05-19T01:48:24.965Z,63.19
2023-05-19T01:50:51.812Z,63.08
2023-05-19T01:53:18.661Z,63.05
2023-05-19T01:55:48.911Z,63.03
2023-05-19T01:58:46.034Z,62.77
2023-05-19T02:01:43.639Z,62.65
2023-05-19T02:04:26.341Z,62.51
2023-05-19T02:07:46.050Z,62.29
2023-05-19T02:10:26.698Z,61.93
2023-05-19T02:12:53.798Z,62.01
2023-05-19T02:15:24.242Z,62.07
2023-05-19T02:17:53.934Z,61.96
2023-05-19T02:20:21.790Z,61.95
2023-05-19T02:22:48.665Z,62.07
2023-05-19T02:25:15.591Z,62.51
2023-05-19T02:27:42.417Z,62.65
2023-05-19T02:30:10.070Z,62.76
2023-05-19T02:32:37.039Z,62.87
2023-05-19T02:35:05.025Z,63.02
2023-05-19T02:37:32.025Z,63.09
2023-05-19T02:39:59.020Z,62.96
2023-05-19T02:42:25.708Z,62.84
2023-05-19T02:44:54.443Z,62.57
2023-05-19T02:47:21.401Z,62.63
2023-05-19T02:49:48.021Z,62.55
2023-05-19T02:52:16.077Z,62.53
2023-05-19T02:54:43.008Z,62.93
2023-05-19T02:57:10.664Z,62.92
2023-05-19T02:59:37.402Z,62.66
2023-05-19T03:02:04.688Z,62.52
2023-05-19T03:04:31.597Z,62.47
2023-05-19T03:06:58.217Z,62.59
2023-05-19T03:09:25.386Z,62.41
2023-05-19T03:11:52.306Z,62.90
2023-05-19T03:14:23.163Z,62.93
2023-05-19T03:16:51.749Z,63.39
2023-05-19T03:19:18.693Z,63.81
2023-05-19T03:21:45.872Z,63.66
2023-05-19T03:24:13.168Z,63.70
2023-05-19T03:26:39.899Z,63.46
2023-05-19T03:29:07.502Z,63.79
2023-05-19T03:31:35.695Z,63.81
2023-05-19T03:34:03.736Z,63.32
2023-05-19T03:36:39.385Z,63.88
2023-05-19T03:39:09.106Z,64.08
2023-05-19T03:41:35.991Z,64.54
2023-05-19T03:44:03.596Z,64.62
2023-05-19T03:46:30.360Z,64.88
2023-05-19T03:49:26.361Z,64.67
2023-05-19T03:52:05.595Z,64.51
2023-05-19T03:54:39.242Z,64.09
2023-05-19T03:57:05.966Z,63.57
2023-05-19T03:59:32.609Z,63.24
2023-05-19T04:01:59.331Z,63.27
2023-05-19T04:04:26.599Z,63.35
2023-05-19T04:06:53.436Z,63.57
2023-05-19T04:09:21.367Z,63.54
2023-05-19T04:11:48.068Z,63.60
2023-05-19T04:14:15.567Z,63.55
2023-05-19T04:16:43.383Z,63.82
2023-05-19T04:19:09.980Z,63.96
2023-05-19T04:21:36.831Z,63.94
2023-05-19T04:24:05.905Z,63.87
2023-05-19T04:26:33.597Z,64.27
2023-05-19T04:29:04.297Z,64.60
2023-05-19T04:31:30.938Z,64.63
2023-05-19T04:33:57.825Z,65.04
2023-05-19T04:36:24.719Z,64.43
2023-05-19T04:38:54.410Z,64.13
2023-05-19T04:41:22.634Z,64.28
2023-05-19T04:43:49.648Z,64.57
2023-05-19T04:46:23.806Z,64.56
2023-05-19T04:48:52.650Z,64.48
2023-05-19T04:51:19.579Z,64.30
2023-05-19T04:53:46.608Z,64.74
2023-05-19T04:56:14.752Z,64.03
2023-05-19T04:58:44.142Z,63.29
2023-05-19T05:01:13.411Z,63.01
2023-05-19T05:03:40.191Z,63.03
2023-05-19T05:06:08.736Z,63.68
2023-05-19T05:08:39.496Z,63.46
2023-05-19T05:11:07.314Z,63.43
2023-05-19T05:13:40.446Z,63.07
2023-05-19T05:16:08.961Z,63.39
2023-05-19T05:18:37.959Z,63.27
2023-05-19T05:21:06.605Z,63.15
2023-05-19T05:23:35.248Z,63.13
2023-05-19T05:26:09.008Z,62.67
2023-05-19T05:28:36.624Z,63.19
2023-05-19T05:31:03.465Z,62.90
2023-05-19T05:33:30.490Z,62.74
2023-05-19T05:35:57.687Z,63.03
2023-05-19T05:38:25.315Z,63.68
2023-05-19T05:40:52.364Z,63.92
2023-05-19T05:43:21.489Z,63.80
2023-05-19T05:45:52.573Z,63.75
2023-05-19T05:48:20.879Z,63.64
2023-05-19T05:50:48.059Z,63.74
2023-05-19T05:53:18.858Z,63.50
2023-05-19T05:55:47.242Z,63.00
2023-05-19T05:58:15.216Z,62.91
2023-05-19T06:00:43.074Z,62.87
2023-05-19T06:03:10.746Z,62.81
2023-05-19T06:05:37.934Z,62.27
2023-05-19T06:08:05.248Z,61.20
2023-05-19T06:10:35.164Z,61.78
2023-05-19T06:13:05.485Z,61.24
2023-05-19T06:15:32.310Z,60.94
2023-05-19T06:18:24.435Z,61.11
2023-05-19T06:20:52.831Z,60.49
2023-05-19T06:23:19.569Z,60.06
2023-05-19T06:25:46.252Z,59.85
2023-05-19T06:28:14.121Z,60.66
2023-05-19T06:30:40.743Z,60.58
2023-05-19T06:33:36.664Z,59.16
2023-05-19T06:36:04.407Z,60.05
2023-05-19T06:38:32.676Z,63.80
2023-05-19T06:41:00.748Z,65.89
2023-05-19T06:43:28.201Z,65.49
2023-05-19T06:45:56.833Z,63.72
2023-05-19T06:48:25.174Z,63.56
2023-05-19T06:50:52.328Z,62.78
2023-05-19T06:53:19.498Z,62.12
2023-05-19T06:55:58.088Z,61.42
2023-05-19T06:58:27.758Z,61.28
2023-05-19T07:00:56.511Z,61.60
2023-05-19T07:03:26.675Z,60.92
2023-05-19T07:05:54.784Z,60.80
2023-05-19T07:08:21.618Z,61.12
2023-05-19T07:10:48.551Z,61.70
2023-05-19T07:13:15.814Z,62.32
2023-05-19T07:15:42.748Z,61.89
2023-05-19T07:18:11.364Z,60.46
2023-05-19T07:20:48.722Z,61.40
2023-05-19T07:23:17.247Z,60.07
2023-05-19T07:25:46.117Z,60.68
2023-05-19T07:28:12.847Z,60.90
2023-05-19T07:30:40.693Z,61.28
2023-05-19T07:33:07.667Z,60.53
2023-05-19T07:35:34.615Z,61.41
2023-05-19T07:38:02.452Z,60.93
2023-05-19T07:40:29.154Z,58.67
2023-05-19T07:42:56.049Z,58.74
2023-05-19T07:45:22.914Z,63.95
2023-05-19T07:47:50.022Z,64.89
2023-05-19T07:50:17.986Z,64.02
2023-05-19T07:52:45.437Z,63.73
2023-05-19T07:55:14.182Z,62.51
2023-05-19T07:57:41.066Z,61.87
2023-05-19T08:00:11.278Z,61.35
2023-05-19T08:02:41.751Z,60.03
2023-05-19T08:05:10.136Z,63.23
2023-05-19T08:07:36.762Z,64.49
2023-05-19T08:10:03.815Z,63.99
2023-05-19T08:12:30.928Z,63.27
2023-05-19T08:14:59.738Z,63.08
2023-05-19T08:17:28.327Z,61.81
2023-05-19T08:19:54.991Z,61.66
2023-05-19T08:22:21.808Z,61.27
2023-05-19T08:24:51.106Z,61.11
2023-05-19T08:27:19.147Z,61.22
2023-05-19T08:29:46.295Z,61.10
2023-05-19T08:32:13.460Z,61.25
2023-05-19T08:34:41.269Z,61.52
2023-05-19T08:37:08.065Z,61.70
2023-05-19T08:39:35.295Z,61.20
2023-05-19T08:42:02.701Z,60.71
2023-05-19T08:44:30.413Z,60.73
2023-05-19T08:46:57.309Z,60.97
2023-05-19T08:49:28.126Z,59.73
2023-05-19T08:53:00.871Z,58.29
2023-05-19T08:55:43.631Z,62.22
2023-05-19T08:58:10.529Z,62.80
2023-05-19T09:00:38.752Z,62.19
2023-05-19T09:03:17.684Z,61.60
2023-05-19T09:05:46.036Z,61.20
2023-05-19T09:08:13.515Z,60.68
2023-05-19T09:10:40.733Z,59.52
2023-05-19T09:13:07.388Z,58.91
2023-05-19T09:15:36.209Z,59.82
2023-05-19T09:18:12.337Z,59.98
2023-05-19T09:20:42.233Z,60.55
2023-05-19T09:23:13.521Z,60.10
2023-05-19T09:25:52.751Z,62.33
2023-05-19T09:28:32.202Z,65.40
2023-05-19T09:30:59.772Z,63.75
2023-05-19T09:33:37.359Z,63.40
2023-05-19T09:36:05.840Z,61.75
2023-05-19T09:38:34.700Z,60.77
2023-05-19T09:41:01.665Z,60.37
2023-05-19T09:43:30.053Z,58.08
2023-05-19T09:46:04.403Z,62.35
2023-05-19T09:48:34.860Z,62.97
2023-05-19T09:51:02.841Z,62.76
2023-05-19T09:53:30.629Z,61.19
2023-05-19T09:55:57.748Z,60.33
2023-05-19T09:58:25.907Z,58.10
2023-05-19T10:00:56.691Z,57.03
2023-05-19T10:03:23.458Z,56.86
2023-05-19T10:05:50.674Z,60.30
2023-05-19T10:08:17.410Z,64.11
2023-05-19T10:10:46.530Z,62.76
2023-05-19T10:13:13.688Z,59.80
2023-05-19T10:15:57.372Z,58.16
2023-05-19T10:18:26.505Z,58.70
2023-05-19T10:20:53.260Z,59.71
2023-05-19T10:23:20.610Z,59.55
2023-05-19T10:25:48.532Z,63.45
2023-05-19T10:28:16.884Z,64.40
2023-05-19T10:30:45.928Z,61.25
2023-05-19T10:33:18.099Z,60.17
2023-05-19T10:36:16.041Z,58.00
2023-05-19T10:38:55.208Z,57.30
2023-05-19T10:41:51.263Z,58.31
2023-05-19T10:44:49.628Z,58.73
2023-05-19T10:47:26.222Z,63.95
2023-05-19T10:49:53.393Z,63.74
2023-05-19T10:52:26.565Z,61.69
2023-05-19T10:54:56.335Z,58.70
2023-05-19T10:57:32.017Z,56.29
2023-05-19T11:00:00.233Z,56.98
2023-05-19T11:02:40.945Z,61.23
2023-05-19T11:05:16.088Z,61.72
2023-05-19T11:07:44.071Z,61.19
2023-05-19T11:10:11.860Z,56.98
2023-05-19T11:12:45.243Z,55.44
2023-05-19T11:15:15.780Z,56.31
2023-05-19T11:17:47.907Z,58.24
2023-05-19T11:20:34.298Z,58.84
2023-05-19T11:23:06.324Z,61.01
2023-05-19T11:25:47.166Z,62.26
2023-05-19T11:28:26.855Z,62.80
2023-05-19T11:30:56.996Z,61.72
2023-05-19T11:33:26.952Z,60.29
2023-05-19T11:35:57.477Z,59.63
2023-05-19T11:38:27.678Z,60.68
2023-05-19T11:40:57.801Z,62.31
2023-05-19T11:43:25.357Z,62.59
2023-05-19T11:45:54.063Z,62.60
2023-05-19T11:48:21.744Z,60.89
2023-05-19T11:50:49.415Z,56.94
2023-05-19T11:53:20.183Z,56.21
2023-05-19T11:55:51.728Z,58.55
2023-05-19T11:58:18.701Z,59.24
2023-05-19T12:00:46.969Z,60.59
2023-05-19T12:03:14.309Z,60.54
2023-05-19T12:05:47.834Z,62.10
2023-05-19T12:08:17.650Z,63.85
2023-05-19T12:10:48.481Z,61.30
2023-05-19T12:13:16.240Z,60.56
2023-05-19T12:15:43.754Z,58.79
2023-05-19T12:18:10.707Z,58.87
2023-05-19T12:20:37.766Z,61.17
2023-05-19T12:23:07.534Z,62.66
2023-05-19T12:25:34.834Z,62.67
2023-05-19T12:28:04.757Z,62.31
2023-05-19T12:30:32.413Z,60.56
2023-05-19T12:33:02.958Z,58.66
2023-05-19T12:35:32.769Z,58.80
2023-05-19T12:38:04.343Z,60.52
2023-05-19T12:40:38.879Z,62.63
2023-05-19T12:43:08.992Z,63.35
2023-05-19T12:45:42.008Z,62.79
2023-05-19T12:48:18.137Z,59.76
2023-05-19T12:50:45.135Z,58.02
2023-05-19T12:53:12.493Z,59.39
2023-05-19T12:55:41.619Z,59.40
2023-05-19T12:58:08.432Z,60.21
2023-05-19T13:00:40.491Z,61.82
2023-05-19T13:03:24.086Z,62.81
2023-05-19T13:05:53.527Z,62.59
2023-05-19T13:08:21.483Z,60.67
2023-05-19T13:10:51.253Z,59.88
2023-05-19T13:13:21.554Z,57.39
2023-05-19T13:15:49.780Z,60.06
2023-05-19T13:18:17.192Z,62.13
2023-05-19T13:20:44.580Z,63.77
2023-05-19T13:23:12.201Z,63.69
2023-05-19T13:25:42.593Z,61.34
2023-05-19T13:28:09.926Z,60.60
2023-05-19T13:30:41.107Z,60.39
2023-05-19T13:33:08.791Z,60.98
2023-05-19T13:35:38.510Z,60.27
2023-05-19T13:38:06.420Z,59.18
2023-05-19T13:40:34.597Z,58.37
2023-05-19T13:43:03.097Z,59.90
2023-05-19T13:45:30.029Z,62.43
2023-05-19T13:47:57.900Z,63.57
2023-05-19T13:50:25.541Z,62.22
2023-05-19T13:52:52.807Z,61.26
2023-05-19T13:55:19.598Z,60.86
2023-05-19T13:57:46.390Z,60.97
2023-05-19T14:00:14.793Z,61.07
2023-05-19T14:02:41.989Z,61.26
2023-05-19T14:05:11.512Z,60.33
2023-05-19T14:07:38.348Z,60.77
2023-05-19T14:10:06.313Z,59.87
2023-05-19T14:12:41.346Z,60.08
2023-05-19T14:15:14.453Z,59.60
2023-05-19T14:17:41.600Z,58.42
2023-05-19T14:20:09.477Z,59.43
2023-05-19T14:22:36.179Z,60.25
2023-05-19T14:25:03.235Z,62.83
2023-05-19T14:27:30.072Z,65.25
2023-05-19T14:29:56.995Z,63.83
2023-05-19T14:32:24.127Z,62.81
2023-05-19T14:34:52.373Z,63.07
2023-05-19T14:37:19.713Z,62.21
2023-05-19T14:39:46.457Z,60.78
2023-05-19T14:42:13.273Z,60.68
2023-05-19T14:44:41.343Z,60.61
2023-05-19T14:47:08.283Z,59.69
2023-05-19T14:49:35.048Z,58.56
2023-05-19T14:52:01.978Z,59.28
2023-05-19T14:54:28.813Z,58.78
2023-05-19T14:56:55.757Z,61.07
2023-05-19T14:59:24.432Z,64.93
2023-05-19T15:01:51.806Z,65.09
2023-05-19T15:04:19.051Z,63.64
2023-05-19T15:06:48.215Z,62.17
2023-05-19T15:09:19.307Z,62.04
2023-05-19T15:11:46.025Z,61.55
2023-05-19T15:14:12.688Z,60.28
2023-05-19T15:16:39.766Z,61.18
2023-05-19T15:19:07.666Z,61.73
2023-05-19T15:21:34.475Z,61.43
2023-05-19T15:24:02.589Z,60.72
2023-05-19T15:26:29.840Z,60.55
2023-05-19T15:28:56.615Z,59.21
2023-05-19T15:31:23.413Z,58.17
2023-05-19T15:33:50.171Z,59.52
2023-05-19T15:36:17.010Z,60.89
2023-05-19T15:38:43.850Z,63.04
2023-05-19T15:41:10.794Z,63.46
2023-05-19T15:43:38.155Z,64.72
2023-05-19T15:46:07.702Z,64.60
2023-05-19T15:48:34.457Z,64.25
2023-05-19T15:51:01.180Z,63.97
2023-05-19T15:53:28.484Z,62.72
2023-05-19T15:55:56.879Z,62.84
2023-05-19T15:58:23.561Z,62.35
2023-05-19T16:00:50.514Z,61.89
2023-05-19T23:50:32.164Z,63.39
2023-05-19T23:53:00.177Z,62.90
2023-05-19T23:55:28.438Z,63.07
2023-05-19T23:57:59.337Z,63.31
